• Join FlightAware (Why Join?)
  • Login
  • US Flag 
06:54PM EDT


 

Airport Tracker/Info


-or-


 

Live Flight TrackerFlight Track Log ✈ PDT4226 ✈ 25-Jan-2014 ✈ KPHL - KBGM

Flight Track Log - Related Links

Times and Time Zones

All times are in EST time to prevent confusion due to time zone crossing. See the PDT4226 flight status page for this flight to view local times or setup timezone preferences in your user account.

Time Position Orientation Groundspeed Altitude Reporting Facility
EST Latitude Longitude Course Direction KTS MPH feet Rate Location/Type
02:33PM 39.8667 -75.2667 270° West 120 138 700  Level Philadelphia TRACON
02:34PM 39.8667 -75.3167 270° West 138 159 2,200 1,380 Climbing Philadelphia TRACON
02:35PM 39.8833 -75.3500 303° West 147 169 3,400 1,380 Climbing Philadelphia TRACON
02:36PM 39.9039 -75.3817 310° West 147 169 4,500 1,440 Climbing New York Center
02:37PM 39.9394 -75.4147 325° Northwest 154 177 5,800 1,140 Climbing New York Center
02:38PM 39.9869 -75.4350 342° North 181 208 6,900 1,080 Climbing New York Center
02:39PM 40.0428 -75.4583 342° North 195 224 8,100 960 Climbing New York Center
02:40PM 40.0947 -75.4828 340° North 199 229 9,000 480 Climbing New York Center
02:41PM 40.1528 -75.5164 336° Northwest 230 265 9,100 120 Climbing New York Center
02:42PM 40.2117 -75.5581 332° Northwest 235 270 9,300 480 Climbing New York Center
02:43PM 40.2506 -75.6114 314° West 187 215 10,200 840 Climbing New York Center
02:44PM 40.2894 -75.6631 315° West 189 217 11,100 780 Climbing New York Center
02:45PM 40.3453 -75.6897 340° North 206 237 11,900 420 Climbing New York Center
02:46PM 40.4003 -75.7292 331° Northwest 219 252 12,000 240 Climbing New York Center
02:47PM 40.4583 -75.7606 338° Northwest 236 272 12,500 600 Climbing New York Center
02:48PM 40.5194 -75.7908 339° North 227 261 13,300 720 Climbing New York Center
02:49PM 40.5764 -75.8233 337° Northwest 215 247 14,000 300 Climbing New York Center
02:50PM 40.6389 -75.8603 336° Northwest 239 275 14,000  Level New York Center
02:51PM 40.7025 -75.8917 339° North 251 289 14,000 -60 Level New York Center
02:52PM 40.7711 -75.9381 333° Northwest 257 296 13,900 -60 Descending New York Center
02:53PM 40.8386 -75.9817 334° Northwest 258 297 13,900  Level New York Center
02:54PM 40.9097 -76.0175 339° North 264 304 13,900  Level New York Center
02:55PM 40.9739 -76.0556 336° Northwest 262 302 14,000  Climbing New York Center
02:56PM 41.0400 -76.0967 335° Northwest 256 295 14,000  Level New York Center
02:57PM 41.1122 -76.1319 340° North 265 305 14,000  Level New York Center
02:58PM 41.1803 -76.1761 334° Northwest 261 300 14,000  Level New York Center
02:59PM 41.2519 -76.2108 340° North 263 303 14,000  Level New York Center
03:00PM 41.3292 -76.1981 North 288 331 14,000  Level New York Center
03:01PM 41.4111 -76.1953 North 282 325 14,000  Level New York Center
03:02PM 41.4933 -76.1919 North 281 323 14,000 -180 Level New York Center
03:03PM 41.5767 -76.1786 North 285 328 13,700 -600 Descending New York Center
03:04PM 41.6647 -76.1714 North 301 346 12,800 -1,140 Descending New York Center
03:05PM 41.7450 -76.1686 North 301 346 11,400 -1,560 Descending New York Center
03:06PM 41.8269 -76.1614 North 287 330 9,700 -1,620 Descending New York Center
03:08PM 41.9067 -76.1536 North 279 321 8,100 -1,500 Descending New York Center
03:09PM 41.9800 -76.1350 11° North 266 306 6,600 -1,260 Descending New York Center
03:10PM 42.0400 -76.0883 30° Northeast 261 300 5,500 -960 Descending New York Center
03:11PM 42.1094 -76.0522 21° North 257 296 4,700 -840 Descending New York Center
03:12PM 42.1742 -76.0567 357° North 241 277 3,900 -780 Descending New York Center
03:13PM 42.2244 -76.0603 357° North 206 237 3,200 -660 Descending New York Center
03:14PM 42.2528 -76.0269 41° Northeast 162 186 2,600 -540 Descending New York Center
03:15PM 42.2325 -75.9981 133° Southeast 134 154 2,200 -420 Descending New York Center